sensor_id;sensor_type;location;lat;lon;timestamp;P1;durP1;ratioP1;P2;durP2;ratioP2
82703;SDS011;72427;42.000;21.464;2023-10-19T00:01:21;20.58;;;12.52;;
82703;SDS011;72427;42.000;21.464;2023-10-19T00:03:51;17.67;;;10.50;;
82703;SDS011;72427;42.000;21.464;2023-10-19T00:06:21;21.52;;;10.95;;
82703;SDS011;72427;42.000;21.464;2023-10-19T00:08:48;16.65;;;11.10;;
82703;SDS011;72427;42.000;21.464;2023-10-19T00:11:17;22.02;;;11.55;;
82703;SDS011;72427;42.000;21.464;2023-10-19T00:13:52;17.95;;;11.02;;
82703;SDS011;72427;42.000;21.464;2023-10-19T00:16:19;18.35;;;10.48;;
82703;SDS011;72427;42.000;21.464;2023-10-19T00:18:53;18.67;;;10.63;;
82703;SDS011;72427;42.000;21.464;2023-10-19T00:21:24;22.38;;;11.18;;
82703;SDS011;72427;42.000;21.464;2023-10-19T00:23:51;19.60;;;10.13;;
82703;SDS011;72427;42.000;21.464;2023-10-19T00:26:21;22.98;;;10.57;;
82703;SDS011;72427;42.000;21.464;2023-10-19T00:28:50;16.30;;;9.85;;
82703;SDS011;72427;42.000;21.464;2023-10-19T00:31:18;20.60;;;10.50;;
82703;SDS011;72427;42.000;21.464;2023-10-19T00:36:16;16.23;;;9.07;;
82703;SDS011;72427;42.000;21.464;2023-10-19T00:38:45;16.92;;;8.43;;
82703;SDS011;72427;42.000;21.464;2023-10-19T00:43:54;15.77;;;9.18;;
82703;SDS011;72427;42.000;21.464;2023-10-19T00:46:28;19.83;;;9.93;;
82703;SDS011;72427;42.000;21.464;2023-10-19T00:49:06;20.75;;;10.52;;
82703;SDS011;72427;42.000;21.464;2023-10-19T00:54:14;20.10;;;10.85;;
82703;SDS011;72427;42.000;21.464;2023-10-19T00:56:45;21.40;;;10.85;;
82703;SDS011;72427;42.000;21.464;2023-10-19T00:59:17;20.30;;;9.95;;
82703;SDS011;72427;42.000;21.464;2023-10-19T01:01:50;19.73;;;9.10;;
82703;SDS011;72427;42.000;21.464;2023-10-19T01:06:48;18.48;;;9.75;;
82703;SDS011;72427;42.000;21.464;2023-10-19T01:09:31;20.65;;;9.27;;
82703;SDS011;72427;42.000;21.464;2023-10-19T01:12:04;19.38;;;9.63;;
82703;SDS011;72427;42.000;21.464;2023-10-19T01:15:03;17.27;;;9.57;;
82703;SDS011;72427;42.000;21.464;2023-10-19T01:17:37;18.65;;;9.88;;
82703;SDS011;72427;42.000;21.464;2023-10-19T01:20:10;17.23;;;9.70;;
82703;SDS011;72427;42.000;21.464;2023-10-19T01:22:54;18.13;;;9.80;;
82703;SDS011;72427;42.000;21.464;2023-10-19T01:25:54;16.90;;;9.05;;
82703;SDS011;72427;42.000;21.464;2023-10-19T01:28:21;16.08;;;9.38;;
82703;SDS011;72427;42.000;21.464;2023-10-19T01:30:51;17.35;;;9.82;;
82703;SDS011;72427;42.000;21.464;2023-10-19T01:33:17;16.40;;;9.93;;
82703;SDS011;72427;42.000;21.464;2023-10-19T01:35:44;14.77;;;9.13;;
82703;SDS011;72427;42.000;21.464;2023-10-19T01:38:29;18.92;;;9.95;;
82703;SDS011;72427;42.000;21.464;2023-10-19T01:40:56;19.50;;;10.90;;
82703;SDS011;72427;42.000;21.464;2023-10-19T01:43:25;17.25;;;9.27;;
82703;SDS011;72427;42.000;21.464;2023-10-19T01:45:55;18.55;;;9.73;;
82703;SDS011;72427;42.000;21.464;2023-10-19T01:48:21;19.88;;;9.88;;
82703;SDS011;72427;42.000;21.464;2023-10-19T01:50:52;17.15;;;10.05;;
82703;SDS011;72427;42.000;21.464;2023-10-19T01:53:18;18.15;;;10.77;;
82703;SDS011;72427;42.000;21.464;2023-10-19T01:55:50;19.35;;;9.98;;
82703;SDS011;72427;42.000;21.464;2023-10-19T01:58:23;22.67;;;10.25;;
82703;SDS011;72427;42.000;21.464;2023-10-19T02:00:50;18.23;;;10.13;;
82703;SDS011;72427;42.000;21.464;2023-10-19T02:03:20;20.58;;;9.95;;
82703;SDS011;72427;42.000;21.464;2023-10-19T02:05:57;19.10;;;10.77;;
82703;SDS011;72427;42.000;21.464;2023-10-19T02:08:24;21.45;;;10.13;;
82703;SDS011;72427;42.000;21.464;2023-10-19T02:10:51;19.25;;;10.52;;
82703;SDS011;72427;42.000;21.464;2023-10-19T02:13:17;20.55;;;11.50;;
82703;SDS011;72427;42.000;21.464;2023-10-19T02:15:44;17.70;;;10.57;;
82703;SDS011;72427;42.000;21.464;2023-10-19T02:18:10;20.73;;;10.55;;
82703;SDS011;72427;42.000;21.464;2023-10-19T02:20:37;22.25;;;10.77;;
82703;SDS011;72427;42.000;21.464;2023-10-19T02:23:07;20.60;;;10.48;;
82703;SDS011;72427;42.000;21.464;2023-10-19T02:25:33;23.13;;;10.90;;
82703;SDS011;72427;42.000;21.464;2023-10-19T02:28:03;19.27;;;9.75;;
82703;SDS011;72427;42.000;21.464;2023-10-19T02:32:59;17.90;;;8.82;;
82703;SDS011;72427;42.000;21.464;2023-10-19T02:35:26;16.00;;;8.48;;
82703;SDS011;72427;42.000;21.464;2023-10-19T02:37:53;18.25;;;9.75;;
82703;SDS011;72427;42.000;21.464;2023-10-19T02:40:19;22.25;;;9.90;;
82703;SDS011;72427;42.000;21.464;2023-10-19T02:42:48;19.50;;;9.80;;
82703;SDS011;72427;42.000;21.464;2023-10-19T02:45:15;18.65;;;9.75;;
82703;SDS011;72427;42.000;21.464;2023-10-19T02:47:45;18.50;;;9.23;;
82703;SDS011;72427;42.000;21.464;2023-10-19T02:50:12;18.33;;;9.63;;
82703;SDS011;72427;42.000;21.464;2023-10-19T02:52:41;19.88;;;10.00;;
82703;SDS011;72427;42.000;21.464;2023-10-19T02:55:08;25.27;;;10.25;;
82703;SDS011;72427;42.000;21.464;2023-10-19T02:57:35;20.52;;;10.07;;
82703;SDS011;72427;42.000;21.464;2023-10-19T03:00:04;18.98;;;10.65;;
82703;SDS011;72427;42.000;21.464;2023-10-19T03:02:36;21.45;;;10.80;;
82703;SDS011;72427;42.000;21.464;2023-10-19T03:05:03;21.60;;;10.88;;
82703;SDS011;72427;42.000;21.464;2023-10-19T03:07:38;30.85;;;10.10;;
82703;SDS011;72427;42.000;21.464;2023-10-19T03:10:05;30.58;;;10.48;;
82703;SDS011;72427;42.000;21.464;2023-10-19T03:12:31;24.08;;;9.52;;
82703;SDS011;72427;42.000;21.464;2023-10-19T03:14:58;22.92;;;9.75;;
82703;SDS011;72427;42.000;21.464;2023-10-19T03:17:25;22.02;;;9.95;;
82703;SDS011;72427;42.000;21.464;2023-10-19T03:19:53;20.08;;;9.30;;
82703;SDS011;72427;42.000;21.464;2023-10-19T03:22:20;18.02;;;9.32;;
82703;SDS011;72427;42.000;21.464;2023-10-19T03:24:46;26.25;;;9.35;;
82703;SDS011;72427;42.000;21.464;2023-10-19T03:27:13;20.77;;;10.20;;
82703;SDS011;72427;42.000;21.464;2023-10-19T03:29:49;22.25;;;10.10;;
82703;SDS011;72427;42.000;21.464;2023-10-19T03:32:39;20.65;;;9.70;;
82703;SDS011;72427;42.000;21.464;2023-10-19T03:35:06;26.42;;;9.93;;
82703;SDS011;72427;42.000;21.464;2023-10-19T03:37:32;23.58;;;10.10;;
82703;SDS011;72427;42.000;21.464;2023-10-19T03:40:01;29.00;;;9.85;;
82703;SDS011;72427;42.000;21.464;2023-10-19T03:42:32;23.63;;;10.25;;
82703;SDS011;72427;42.000;21.464;2023-10-19T03:44:58;22.73;;;10.57;;
82703;SDS011;72427;42.000;21.464;2023-10-19T03:47:27;24.85;;;11.13;;
82703;SDS011;72427;42.000;21.464;2023-10-19T03:50:03;17.25;;;9.43;;
82703;SDS011;72427;42.000;21.464;2023-10-19T03:52:32;19.25;;;9.98;;
82703;SDS011;72427;42.000;21.464;2023-10-19T03:54:58;23.27;;;11.23;;
82703;SDS011;72427;42.000;21.464;2023-10-19T03:57:24;22.60;;;10.68;;
82703;SDS011;72427;42.000;21.464;2023-10-19T03:59:54;19.75;;;10.63;;
82703;SDS011;72427;42.000;21.464;2023-10-19T04:02:24;28.25;;;10.82;;
82703;SDS011;72427;42.000;21.464;2023-10-19T04:04:53;28.38;;;12.45;;
82703;SDS011;72427;42.000;21.464;2023-10-19T04:07:20;32.88;;;17.35;;
82703;SDS011;72427;42.000;21.464;2023-10-19T04:09:50;28.20;;;18.67;;
82703;SDS011;72427;42.000;21.464;2023-10-19T04:12:24;20.95;;;11.77;;
82703;SDS011;72427;42.000;21.464;2023-10-19T04:14:50;25.40;;;11.45;;
82703;SDS011;72427;42.000;21.464;2023-10-19T04:17:16;21.05;;;10.80;;
82703;SDS011;72427;42.000;21.464;2023-10-19T04:19:46;20.27;;;10.10;;
82703;SDS011;72427;42.000;21.464;2023-10-19T04:22:14;25.42;;;11.25;;
82703;SDS011;72427;42.000;21.464;2023-10-19T04:24:48;27.77;;;10.88;;
82703;SDS011;72427;42.000;21.464;2023-10-19T04:27:14;42.97;;;11.38;;
82703;SDS011;72427;42.000;21.464;2023-10-19T04:29:40;28.27;;;10.98;;
82703;SDS011;72427;42.000;21.464;2023-10-19T04:32:08;34.90;;;12.25;;
82703;SDS011;72427;42.000;21.464;2023-10-19T04:34:35;23.38;;;11.20;;
82703;SDS011;72427;42.000;21.464;2023-10-19T04:37:04;23.35;;;10.77;;
82703;SDS011;72427;42.000;21.464;2023-10-19T04:39:31;22.80;;;11.20;;
82703;SDS011;72427;42.000;21.464;2023-10-19T04:41:59;23.00;;;11.25;;
82703;SDS011;72427;42.000;21.464;2023-10-19T04:44:25;22.05;;;11.40;;
82703;SDS011;72427;42.000;21.464;2023-10-19T04:46:51;26.33;;;10.90;;
82703;SDS011;72427;42.000;21.464;2023-10-19T04:49:17;24.98;;;11.88;;
82703;SDS011;72427;42.000;21.464;2023-10-19T04:51:44;24.67;;;11.52;;
82703;SDS011;72427;42.000;21.464;2023-10-19T04:54:10;30.65;;;12.63;;
82703;SDS011;72427;42.000;21.464;2023-10-19T04:56:36;28.25;;;12.00;;
82703;SDS011;72427;42.000;21.464;2023-10-19T04:59:02;25.08;;;13.07;;
82703;SDS011;72427;42.000;21.464;2023-10-19T05:01:28;29.25;;;13.57;;
82703;SDS011;72427;42.000;21.464;2023-10-19T05:03:54;31.55;;;15.35;;
82703;SDS011;72427;42.000;21.464;2023-10-19T05:06:20;29.65;;;13.82;;
82703;SDS011;72427;42.000;21.464;2023-10-19T05:08:47;24.13;;;12.82;;
82703;SDS011;72427;42.000;21.464;2023-10-19T05:11:13;37.10;;;14.82;;
82703;SDS011;72427;42.000;21.464;2023-10-19T05:13:39;37.95;;;13.75;;
82703;SDS011;72427;42.000;21.464;2023-10-19T05:16:05;42.72;;;13.48;;
82703;SDS011;72427;42.000;21.464;2023-10-19T05:18:32;27.33;;;11.98;;
82703;SDS011;72427;42.000;21.464;2023-10-19T05:20:59;35.78;;;13.68;;
82703;SDS011;72427;42.000;21.464;2023-10-19T05:23:26;46.20;;;14.27;;
82703;SDS011;72427;42.000;21.464;2023-10-19T05:25:59;38.63;;;13.52;;
82703;SDS011;72427;42.000;21.464;2023-10-19T05:28:27;43.17;;;14.57;;
82703;SDS011;72427;42.000;21.464;2023-10-19T05:30:53;46.97;;;19.75;;
82703;SDS011;72427;42.000;21.464;2023-10-19T05:33:19;38.00;;;18.02;;
82703;SDS011;72427;42.000;21.464;2023-10-19T05:35:49;33.42;;;13.95;;
82703;SDS011;72427;42.000;21.464;2023-10-19T05:40:41;26.23;;;11.48;;
82703;SDS011;72427;42.000;21.464;2023-10-19T05:43:10;28.83;;;11.07;;
82703;SDS011;72427;42.000;21.464;2023-10-19T05:45:36;25.42;;;11.45;;
82703;SDS011;72427;42.000;21.464;2023-10-19T05:48:02;23.10;;;11.93;;
82703;SDS011;72427;42.000;21.464;2023-10-19T05:50:29;19.75;;;11.32;;
82703;SDS011;72427;42.000;21.464;2023-10-19T05:52:55;29.52;;;13.38;;
82703;SDS011;72427;42.000;21.464;2023-10-19T05:55:21;28.95;;;14.40;;
82703;SDS011;72427;42.000;21.464;2023-10-19T05:57:47;25.13;;;13.93;;
82703;SDS011;72427;42.000;21.464;2023-10-19T06:00:14;34.35;;;15.40;;
82703;SDS011;72427;42.000;21.464;2023-10-19T06:02:47;26.42;;;14.50;;
82703;SDS011;72427;42.000;21.464;2023-10-19T06:05:15;26.38;;;14.25;;
82703;SDS011;72427;42.000;21.464;2023-10-19T06:07:41;24.65;;;13.20;;
82703;SDS011;72427;42.000;21.464;2023-10-19T06:10:08;24.98;;;13.27;;
82703;SDS011;72427;42.000;21.464;2023-10-19T06:12:34;25.98;;;11.80;;
82703;SDS011;72427;42.000;21.464;2023-10-19T06:15:02;24.55;;;10.88;;
82703;SDS011;72427;42.000;21.464;2023-10-19T06:17:28;27.58;;;13.27;;
82703;SDS011;72427;42.000;21.464;2023-10-19T06:19:54;25.77;;;13.77;;
82703;SDS011;72427;42.000;21.464;2023-10-19T06:22:21;27.33;;;12.90;;
82703;SDS011;72427;42.000;21.464;2023-10-19T06:24:47;24.42;;;12.30;;
82703;SDS011;72427;42.000;21.464;2023-10-19T06:27:13;21.63;;;11.35;;
82703;SDS011;72427;42.000;21.464;2023-10-19T06:29:39;19.85;;;10.60;;
82703;SDS011;72427;42.000;21.464;2023-10-19T06:32:05;20.13;;;10.77;;
82703;SDS011;72427;42.000;21.464;2023-10-19T06:34:31;25.60;;;13.77;;
82703;SDS011;72427;42.000;21.464;2023-10-19T06:36:57;28.20;;;14.23;;
82703;SDS011;72427;42.000;21.464;2023-10-19T06:39:24;36.95;;;15.38;;
82703;SDS011;72427;42.000;21.464;2023-10-19T06:41:50;30.25;;;14.80;;
82703;SDS011;72427;42.000;21.464;2023-10-19T06:44:17;32.40;;;15.90;;
82703;SDS011;72427;42.000;21.464;2023-10-19T06:46:43;32.60;;;15.95;;
82703;SDS011;72427;42.000;21.464;2023-10-19T06:49:09;31.65;;;16.73;;
82703;SDS011;72427;42.000;21.464;2023-10-19T06:51:35;32.65;;;15.93;;
82703;SDS011;72427;42.000;21.464;2023-10-19T06:54:01;34.33;;;16.63;;
82703;SDS011;72427;42.000;21.464;2023-10-19T06:56:28;35.88;;;17.88;;
82703;SDS011;72427;42.000;21.464;2023-10-19T06:58:55;37.58;;;15.55;;
82703;SDS011;72427;42.000;21.464;2023-10-19T07:01:22;28.55;;;14.50;;
82703;SDS011;72427;42.000;21.464;2023-10-19T07:03:51;28.60;;;13.52;;
82703;SDS011;72427;42.000;21.464;2023-10-19T07:06:18;27.35;;;12.77;;
82703;SDS011;72427;42.000;21.464;2023-10-19T07:08:44;20.38;;;9.98;;
82703;SDS011;72427;42.000;21.464;2023-10-19T07:11:11;20.02;;;10.98;;
82703;SDS011;72427;42.000;21.464;2023-10-19T07:13:37;16.23;;;8.80;;
82703;SDS011;72427;42.000;21.464;2023-10-19T07:16:05;20.75;;;9.23;;
82703;SDS011;72427;42.000;21.464;2023-10-19T07:23:34;15.68;;;8.30;;
82703;SDS011;72427;42.000;21.464;2023-10-19T07:26:03;15.43;;;7.85;;
82703;SDS011;72427;42.000;21.464;2023-10-19T07:28:30;14.38;;;7.80;;
82703;SDS011;72427;42.000;21.464;2023-10-19T07:30:57;18.65;;;8.13;;
82703;SDS011;72427;42.000;21.464;2023-10-19T07:33:24;18.65;;;8.65;;
82703;SDS011;72427;42.000;21.464;2023-10-19T07:35:51;11.52;;;7.38;;
82703;SDS011;72427;42.000;21.464;2023-10-19T07:38:20;12.13;;;7.50;;
82703;SDS011;72427;42.000;21.464;2023-10-19T07:40:47;16.27;;;8.32;;
82703;SDS011;72427;42.000;21.464;2023-10-19T07:43:13;14.68;;;8.38;;
82703;SDS011;72427;42.000;21.464;2023-10-19T07:45:39;13.13;;;7.53;;
82703;SDS011;72427;42.000;21.464;2023-10-19T07:48:06;14.63;;;8.30;;
82703;SDS011;72427;42.000;21.464;2023-10-19T07:50:36;15.27;;;8.40;;
82703;SDS011;72427;42.000;21.464;2023-10-19T07:53:02;18.77;;;8.20;;
82703;SDS011;72427;42.000;21.464;2023-10-19T07:55:28;22.67;;;7.85;;
82703;SDS011;72427;42.000;21.464;2023-10-19T07:57:56;26.55;;;8.57;;
82703;SDS011;72427;42.000;21.464;2023-10-19T08:00:25;20.70;;;8.88;;
82703;SDS011;72427;42.000;21.464;2023-10-19T08:02:54;17.98;;;8.57;;
82703;SDS011;72427;42.000;21.464;2023-10-19T08:05:20;16.17;;;8.77;;
82703;SDS011;72427;42.000;21.464;2023-10-19T08:07:46;20.63;;;8.68;;
82703;SDS011;72427;42.000;21.464;2023-10-19T08:10:14;20.90;;;9.27;;
82703;SDS011;72427;42.000;21.464;2023-10-19T08:12:40;22.35;;;8.38;;
82703;SDS011;72427;42.000;21.464;2023-10-19T08:15:07;18.35;;;9.43;;
82703;SDS011;72427;42.000;21.464;2023-10-19T08:17:36;17.13;;;8.88;;
82703;SDS011;72427;42.000;21.464;2023-10-19T08:20:03;21.98;;;9.18;;
82703;SDS011;72427;42.000;21.464;2023-10-19T08:22:33;15.10;;;8.25;;
82703;SDS011;72427;42.000;21.464;2023-10-19T08:25:01;15.38;;;8.35;;
82703;SDS011;72427;42.000;21.464;2023-10-19T08:27:29;18.02;;;8.38;;
82703;SDS011;72427;42.000;21.464;2023-10-19T08:29:56;15.27;;;8.85;;
82703;SDS011;72427;42.000;21.464;2023-10-19T08:32:22;20.30;;;9.32;;
82703;SDS011;72427;42.000;21.464;2023-10-19T08:34:48;12.15;;;7.13;;
82703;SDS011;72427;42.000;21.464;2023-10-19T08:37:14;10.35;;;7.05;;
82703;SDS011;72427;42.000;21.464;2023-10-19T08:39:40;14.93;;;8.68;;
82703;SDS011;72427;42.000;21.464;2023-10-19T08:42:08;21.13;;;8.27;;
82703;SDS011;72427;42.000;21.464;2023-10-19T08:44:35;17.42;;;9.30;;
82703;SDS011;72427;42.000;21.464;2023-10-19T08:47:01;14.82;;;7.57;;
82703;SDS011;72427;42.000;21.464;2023-10-19T08:49:30;15.90;;;11.27;;
82703;SDS011;72427;42.000;21.464;2023-10-19T08:51:56;13.77;;;9.20;;
82703;SDS011;72427;42.000;21.464;2023-10-19T08:54:24;15.80;;;8.85;;
82703;SDS011;72427;42.000;21.464;2023-10-19T08:56:51;13.25;;;7.50;;
82703;SDS011;72427;42.000;21.464;2023-10-19T08:59:17;10.57;;;7.50;;
82703;SDS011;72427;42.000;21.464;2023-10-19T09:01:44;15.10;;;7.28;;
82703;SDS011;72427;42.000;21.464;2023-10-19T09:04:11;12.45;;;7.28;;
82703;SDS011;72427;42.000;21.464;2023-10-19T09:06:38;12.77;;;8.10;;
82703;SDS011;72427;42.000;21.464;2023-10-19T09:09:16;11.45;;;6.93;;
82703;SDS011;72427;42.000;21.464;2023-10-19T09:11:44;18.92;;;7.70;;
82703;SDS011;72427;42.000;21.464;2023-10-19T09:14:11;22.10;;;8.15;;
82703;SDS011;72427;42.000;21.464;2023-10-19T09:16:38;17.02;;;8.07;;
82703;SDS011;72427;42.000;21.464;2023-10-19T09:19:04;12.02;;;7.35;;
82703;SDS011;72427;42.000;21.464;2023-10-19T09:21:30;19.80;;;12.90;;
82703;SDS011;72427;42.000;21.464;2023-10-19T09:23:58;12.15;;;8.30;;
82703;SDS011;72427;42.000;21.464;2023-10-19T09:26:24;21.63;;;9.20;;
82703;SDS011;72427;42.000;21.464;2023-10-19T09:28:51;18.30;;;13.00;;
82703;SDS011;72427;42.000;21.464;2023-10-19T09:31:19;18.85;;;11.02;;
82703;SDS011;72427;42.000;21.464;2023-10-19T09:33:47;13.93;;;9.27;;
82703;SDS011;72427;42.000;21.464;2023-10-19T09:36:14;15.02;;;9.25;;
82703;SDS011;72427;42.000;21.464;2023-10-19T09:38:44;16.90;;;10.38;;
82703;SDS011;72427;42.000;21.464;2023-10-19T09:41:13;22.98;;;8.82;;
82703;SDS011;72427;42.000;21.464;2023-10-19T09:46:06;20.65;;;13.25;;
82703;SDS011;72427;42.000;21.464;2023-10-19T09:48:34;16.17;;;10.63;;
82703;SDS011;72427;42.000;21.464;2023-10-19T09:51:02;19.58;;;10.77;;
82703;SDS011;72427;42.000;21.464;2023-10-19T09:53:29;17.73;;;10.15;;
82703;SDS011;72427;42.000;21.464;2023-10-19T09:55:59;18.83;;;10.65;;
82703;SDS011;72427;42.000;21.464;2023-10-19T09:58:29;16.55;;;10.50;;
82703;SDS011;72427;42.000;21.464;2023-10-19T10:00:56;17.00;;;10.82;;
82703;SDS011;72427;42.000;21.464;2023-10-19T10:06:07;18.27;;;12.07;;
82703;SDS011;72427;42.000;21.464;2023-10-19T10:08:35;20.48;;;9.80;;
82703;SDS011;72427;42.000;21.464;2023-10-19T10:13:48;19.95;;;11.15;;
82703;SDS011;72427;42.000;21.464;2023-10-19T10:16:17;18.50;;;10.82;;
82703;SDS011;72427;42.000;21.464;2023-10-19T10:18:45;19.45;;;11.93;;
82703;SDS011;72427;42.000;21.464;2023-10-19T10:21:14;22.45;;;16.58;;
82703;SDS011;72427;42.000;21.464;2023-10-19T10:23:44;16.05;;;11.70;;
82703;SDS011;72427;42.000;21.464;2023-10-19T10:26:13;16.98;;;10.48;;
82703;SDS011;72427;42.000;21.464;2023-10-19T10:28:40;20.58;;;12.73;;
82703;SDS011;72427;42.000;21.464;2023-10-19T10:36:05;15.95;;;10.95;;
82703;SDS011;72427;42.000;21.464;2023-10-19T10:38:34;15.50;;;10.65;;
82703;SDS011;72427;42.000;21.464;2023-10-19T10:41:00;15.10;;;10.88;;
82703;SDS011;72427;42.000;21.464;2023-10-19T10:43:27;16.35;;;12.13;;
82703;SDS011;72427;42.000;21.464;2023-10-19T10:46:05;13.23;;;10.65;;
82703;SDS011;72427;42.000;21.464;2023-10-19T10:48:40;19.45;;;13.38;;
82703;SDS011;72427;42.000;21.464;2023-10-19T10:51:16;16.73;;;12.13;;
82703;SDS011;72427;42.000;21.464;2023-10-19T10:53:42;51.83;;;47.33;;
82703;SDS011;72427;42.000;21.464;2023-10-19T10:56:08;16.52;;;14.18;;
82703;SDS011;72427;42.000;21.464;2023-10-19T10:58:34;16.48;;;11.63;;
82703;SDS011;72427;42.000;21.464;2023-10-19T11:01:00;17.02;;;13.57;;
82703;SDS011;72427;42.000;21.464;2023-10-19T11:03:27;12.90;;;10.65;;
82703;SDS011;72427;42.000;21.464;2023-10-19T11:05:55;19.05;;;14.95;;
82703;SDS011;72427;42.000;21.464;2023-10-19T11:08:23;14.93;;;10.48;;
82703;SDS011;72427;42.000;21.464;2023-10-19T11:10:50;16.17;;;11.20;;
82703;SDS011;72427;42.000;21.464;2023-10-19T11:13:18;14.13;;;10.73;;
82703;SDS011;72427;42.000;21.464;2023-10-19T11:15:52;18.52;;;11.13;;
82703;SDS011;72427;42.000;21.464;2023-10-19T11:21:14;18.02;;;12.77;;
82703;SDS011;72427;42.000;21.464;2023-10-19T11:26:09;14.18;;;11.13;;
82703;SDS011;72427;42.000;21.464;2023-10-19T11:28:36;18.90;;;11.55;;
82703;SDS011;72427;42.000;21.464;2023-10-19T11:33:37;12.27;;;10.35;;
82703;SDS011;72427;42.000;21.464;2023-10-19T11:36:04;17.70;;;10.63;;
82703;SDS011;72427;42.000;21.464;2023-10-19T11:38:30;14.82;;;11.80;;
82703;SDS011;72427;42.000;21.464;2023-10-19T11:40:57;14.30;;;11.32;;
82703;SDS011;72427;42.000;21.464;2023-10-19T11:43:23;15.30;;;10.07;;
82703;SDS011;72427;42.000;21.464;2023-10-19T11:45:49;16.50;;;11.13;;
82703;SDS011;72427;42.000;21.464;2023-10-19T11:48:16;14.77;;;10.55;;
82703;SDS011;72427;42.000;21.464;2023-10-19T11:50:42;13.50;;;11.10;;
82703;SDS011;72427;42.000;21.464;2023-10-19T11:53:08;15.90;;;12.07;;
82703;SDS011;72427;42.000;21.464;2023-10-19T11:55:35;14.82;;;10.80;;
82703;SDS011;72427;42.000;21.464;2023-10-19T11:58:01;14.70;;;10.27;;
82703;SDS011;72427;42.000;21.464;2023-10-19T12:00:27;16.85;;;11.15;;
82703;SDS011;72427;42.000;21.464;2023-10-19T12:03:02;15.50;;;10.10;;
82703;SDS011;72427;42.000;21.464;2023-10-19T12:05:29;14.65;;;11.30;;
82703;SDS011;72427;42.000;21.464;2023-10-19T12:07:55;15.07;;;10.80;;
82703;SDS011;72427;42.000;21.464;2023-10-19T12:10:21;12.50;;;10.88;;
82703;SDS011;72427;42.000;21.464;2023-10-19T12:12:57;17.05;;;10.13;;
82703;SDS011;72427;42.000;21.464;2023-10-19T12:15:25;14.63;;;10.75;;
82703;SDS011;72427;42.000;21.464;2023-10-19T12:17:51;12.27;;;9.73;;
82703;SDS011;72427;42.000;21.464;2023-10-19T12:20:17;16.98;;;10.77;;
82703;SDS011;72427;42.000;21.464;2023-10-19T12:22:46;13.18;;;9.70;;
82703;SDS011;72427;42.000;21.464;2023-10-19T12:25:13;17.17;;;10.55;;
82703;SDS011;72427;42.000;21.464;2023-10-19T12:27:40;14.25;;;10.25;;
82703;SDS011;72427;42.000;21.464;2023-10-19T12:30:06;21.58;;;9.93;;
82703;SDS011;72427;42.000;21.464;2023-10-19T12:32:44;13.65;;;8.73;;
82703;SDS011;72427;42.000;21.464;2023-10-19T12:35:10;12.80;;;9.60;;
82703;SDS011;72427;42.000;21.464;2023-10-19T12:37:37;14.93;;;9.60;;
82703;SDS011;72427;42.000;21.464;2023-10-19T12:40:14;14.23;;;9.90;;
82703;SDS011;72427;42.000;21.464;2023-10-19T12:43:06;17.67;;;12.10;;
82703;SDS011;72427;42.000;21.464;2023-10-19T12:45:33;16.40;;;9.38;;
82703;SDS011;72427;42.000;21.464;2023-10-19T12:48:02;18.17;;;9.43;;
82703;SDS011;72427;42.000;21.464;2023-10-19T12:50:29;15.68;;;8.95;;
82703;SDS011;72427;42.000;21.464;2023-10-19T12:52:56;17.27;;;10.57;;
82703;SDS011;72427;42.000;21.464;2023-10-19T12:55:22;16.08;;;9.65;;
82703;SDS011;72427;42.000;21.464;2023-10-19T12:57:52;15.05;;;9.63;;
82703;SDS011;72427;42.000;21.464;2023-10-19T13:00:18;15.93;;;8.93;;
82703;SDS011;72427;42.000;21.464;2023-10-19T13:03:01;14.10;;;9.23;;
82703;SDS011;72427;42.000;21.464;2023-10-19T13:05:32;22.85;;;9.70;;
82703;SDS011;72427;42.000;21.464;2023-10-19T13:07:58;14.63;;;9.63;;
82703;SDS011;72427;42.000;21.464;2023-10-19T13:10:28;13.38;;;9.18;;
82703;SDS011;72427;42.000;21.464;2023-10-19T13:12:59;12.82;;;9.05;;
82703;SDS011;72427;42.000;21.464;2023-10-19T13:15:25;20.13;;;9.45;;
82703;SDS011;72427;42.000;21.464;2023-10-19T13:17:55;21.08;;;9.75;;
82703;SDS011;72427;42.000;21.464;2023-10-19T13:20:21;19.90;;;9.73;;
82703;SDS011;72427;42.000;21.464;2023-10-19T13:22:48;17.05;;;9.52;;
82703;SDS011;72427;42.000;21.464;2023-10-19T13:25:14;15.27;;;9.30;;
82703;SDS011;72427;42.000;21.464;2023-10-19T13:27:53;15.13;;;8.85;;
82703;SDS011;72427;42.000;21.464;2023-10-19T13:30:19;14.65;;;9.20;;
82703;SDS011;72427;42.000;21.464;2023-10-19T13:32:46;22.27;;;10.15;;
82703;SDS011;72427;42.000;21.464;2023-10-19T13:35:12;15.48;;;9.45;;
82703;SDS011;72427;42.000;21.464;2023-10-19T13:37:38;14.93;;;9.15;;
82703;SDS011;72427;42.000;21.464;2023-10-19T13:40:04;14.57;;;9.25;;
82703;SDS011;72427;42.000;21.464;2023-10-19T13:42:31;11.90;;;8.50;;
82703;SDS011;72427;42.000;21.464;2023-10-19T13:44:59;10.50;;;8.32;;
82703;SDS011;72427;42.000;21.464;2023-10-19T13:47:25;13.57;;;8.52;;
82703;SDS011;72427;42.000;21.464;2023-10-19T13:49:51;14.70;;;8.85;;
82703;SDS011;72427;42.000;21.464;2023-10-19T13:52:18;12.23;;;9.13;;
82703;SDS011;72427;42.000;21.464;2023-10-19T13:54:44;13.57;;;8.50;;
82703;SDS011;72427;42.000;21.464;2023-10-19T13:57:10;15.23;;;8.35;;
82703;SDS011;72427;42.000;21.464;2023-10-19T13:59:36;13.43;;;8.48;;
82703;SDS011;72427;42.000;21.464;2023-10-19T14:02:02;19.23;;;9.43;;
82703;SDS011;72427;42.000;21.464;2023-10-19T14:04:28;12.43;;;8.57;;
82703;SDS011;72427;42.000;21.464;2023-10-19T14:06:54;14.98;;;8.40;;
82703;SDS011;72427;42.000;21.464;2023-10-19T14:09:21;13.32;;;8.15;;
82703;SDS011;72427;42.000;21.464;2023-10-19T14:11:48;19.80;;;7.88;;
82703;SDS011;72427;42.000;21.464;2023-10-19T14:14:14;18.25;;;8.35;;
82703;SDS011;72427;42.000;21.464;2023-10-19T14:16:40;12.27;;;7.95;;
82703;SDS011;72427;42.000;21.464;2023-10-19T14:19:07;12.90;;;7.95;;
82703;SDS011;72427;42.000;21.464;2023-10-19T14:21:33;13.55;;;7.35;;
82703;SDS011;72427;42.000;21.464;2023-10-19T14:24:05;11.45;;;7.47;;
82703;SDS011;72427;42.000;21.464;2023-10-19T14:26:33;11.50;;;7.75;;
82703;SDS011;72427;42.000;21.464;2023-10-19T14:28:59;9.77;;;7.55;;
82703;SDS011;72427;42.000;21.464;2023-10-19T14:31:26;11.27;;;7.65;;
82703;SDS011;72427;42.000;21.464;2023-10-19T14:33:52;16.45;;;8.27;;
82703;SDS011;72427;42.000;21.464;2023-10-19T14:36:18;15.55;;;8.35;;
82703;SDS011;72427;42.000;21.464;2023-10-19T14:38:44;15.80;;;9.77;;
82703;SDS011;72427;42.000;21.464;2023-10-19T14:41:11;17.52;;;8.90;;
82703;SDS011;72427;42.000;21.464;2023-10-19T14:43:37;14.48;;;8.80;;
82703;SDS011;72427;42.000;21.464;2023-10-19T14:46:06;14.65;;;8.77;;
82703;SDS011;72427;42.000;21.464;2023-10-19T14:51:00;12.63;;;8.18;;
82703;SDS011;72427;42.000;21.464;2023-10-19T14:53:26;13.48;;;8.23;;
82703;SDS011;72427;42.000;21.464;2023-10-19T14:55:54;24.17;;;9.00;;
82703;SDS011;72427;42.000;21.464;2023-10-19T14:58:21;22.00;;;9.43;;
82703;SDS011;72427;42.000;21.464;2023-10-19T15:00:50;45.72;;;10.40;;
82703;SDS011;72427;42.000;21.464;2023-10-19T15:03:20;20.13;;;10.18;;